Time;durP1;ratioP1;P1;durP2;ratioP2;P2;SDS_P1;SDS_P2;PMS_P1;PMS_P2;Temp;Humidity;BMP_temperature;BMP_pressure;BME280_temperature;BME280_humidity;BME280_pressure;Samples;Min_cycle;Max_cycle;Signal;HPM_P1;HPM_P2
2023/09/16 00:01:59;;;;;;;13.63;8.90;;;;;;;;;;5113734;28;20445;-64
2023/09/16 00:04:26;;;;;;;12.30;9.67;;;;;;;;;;5113806;28;20445;-64
2023/09/16 00:06:53;;;;;;;12.57;11.27;;;;;;;;;;5113645;28;20515;-64
2023/09/16 00:09:20;;;;;;;15.10;12.27;;;;;;;;;;5113704;28;20446;-64
2023/09/16 00:11:49;;;;;;;20.63;12.97;;;;;;;;;;5113243;28;20438;-64
2023/09/16 00:14:18;;;;;;;12.10;8.80;;;;;;;;;;5113366;28;20521;-64
2023/09/16 00:16:45;;;;;;;9.93;8.80;;;;;;;;;;5113187;28;20452;-64
2023/09/16 00:19:12;;;;;;;11.43;9.70;;;;;;;;;;5113645;28;20446;-64
2023/09/16 00:21:41;;;;;;;9.60;8.53;;;;;;;;;;5113182;28;20440;-64
2023/09/16 00:24:11;;;;;;;10.37;9.43;;;;;;;;;;5113596;28;20948;-64
2023/09/16 00:26:39;;;;;;;9.40;8.33;;;;;;;;;;5113110;28;20429;-64
2023/09/16 00:29:07;;;;;;;11.73;9.33;;;;;;;;;;5113183;28;20486;-64
2023/09/16 00:31:36;;;;;;;10.37;9.37;;;;;;;;;;5113388;28;20448;-65
2023/09/16 00:34:03;;;;;;;11.50;9.27;;;;;;;;;;5113448;28;20451;-64
2023/09/16 00:36:30;;;;;;;9.73;8.83;;;;;;;;;;5113440;28;20432;-64
2023/09/16 00:38:58;;;;;;;11.53;9.97;;;;;;;;;;5113333;28;20565;-64
2023/09/16 00:41:25;;;;;;;11.40;9.67;;;;;;;;;;5113058;28;20439;-64
2023/09/16 00:43:52;;;;;;;13.27;9.80;;;;;;;;;;5113275;28;20442;-65
2023/09/16 00:46:20;;;;;;;11.90;9.13;;;;;;;;;;5113315;28;20446;-64
2023/09/16 00:48:48;;;;;;;12.23;9.77;;;;;;;;;;5113205;28;20550;-64
2023/09/16 00:51:15;;;;;;;10.30;9.17;;;;;;;;;;5113295;28;20440;-64
2023/09/16 00:53:44;;;;;;;11.27;10.07;;;;;;;;;;5113056;28;20484;-64
2023/09/16 00:56:12;;;;;;;13.80;11.40;;;;;;;;;;5114062;28;20440;-64
2023/09/16 00:58:40;;;;;;;14.70;10.30;;;;;;;;;;5112926;28;20448;-64
2023/09/16 01:01:09;;;;;;;13.10;10.93;;;;;;;;;;5113258;28;20442;-64
2023/09/16 01:03:38;;;;;;;12.33;10.57;;;;;;;;;;5116757;28;20916;-65
2023/09/16 01:06:05;;;;;;;16.43;10.97;;;;;;;;;;5117689;28;20793;-65
2023/09/16 01:08:34;;;;;;;12.67;10.23;;;;;;;;;;5116590;28;20469;-65
2023/09/16 01:11:05;;;;;;;12.60;9.87;;;;;;;;;;5116583;28;20443;-66
2023/09/16 01:13:32;;;;;;;11.90;10.63;;;;;;;;;;5116537;28;20432;-65
2023/09/16 01:16:04;;;;;;;13.10;11.43;;;;;;;;;;5116610;28;20479;-65
2023/09/16 01:18:33;;;;;;;13.20;10.90;;;;;;;;;;5116919;28;20513;-64
2023/09/16 01:21:03;;;;;;;13.43;12.03;;;;;;;;;;5116918;28;20441;-65
2023/09/16 01:23:31;;;;;;;12.77;11.47;;;;;;;;;;5116766;28;20441;-64
2023/09/16 01:25:59;;;;;;;13.90;11.60;;;;;;;;;;5116843;28;20472;-65
2023/09/16 01:28:27;;;;;;;15.97;11.13;;;;;;;;;;5116085;28;20473;-65
2023/09/16 01:30:56;;;;;;;12.13;10.70;;;;;;;;;;5116269;28;20938;-64
2023/09/16 01:33:26;;;;;;;13.00;11.40;;;;;;;;;;5116475;28;20438;-64
2023/09/16 01:36:04;;;;;;;12.33;11.13;;;;;;;;;;5116223;28;20445;-65
2023/09/16 01:38:33;;;;;;;15.53;11.40;;;;;;;;;;5116442;28;20424;-64
2023/09/16 01:41:02;;;;;;;14.57;11.70;;;;;;;;;;5116154;28;20485;-64
2023/09/16 01:43:31;;;;;;;11.67;10.10;;;;;;;;;;5115995;28;20532;-64
2023/09/16 01:45:58;;;;;;;15.57;11.47;;;;;;;;;;5116934;28;20436;-66
2023/09/16 01:48:25;;;;;;;12.27;10.93;;;;;;;;;;5115759;28;20512;-64
2023/09/16 01:50:52;;;;;;;12.93;11.70;;;;;;;;;;5116239;28;20534;-64
2023/09/16 01:53:19;;;;;;;12.80;11.50;;;;;;;;;;5116111;28;20538;-64
2023/09/16 01:55:47;;;;;;;14.00;12.50;;;;;;;;;;5115861;28;20993;-64
2023/09/16 01:58:15;;;;;;;15.40;11.27;;;;;;;;;;5116053;28;20444;-64
2023/09/16 02:00:43;;;;;;;16.27;12.10;;;;;;;;;;5116040;28;20923;-64
2023/09/16 02:03:10;;;;;;;14.67;11.60;;;;;;;;;;5115982;28;20443;-65
2023/09/16 02:05:37;;;;;;;13.90;11.80;;;;;;;;;;5115666;28;20445;-64
2023/09/16 02:08:05;;;;;;;12.07;10.10;;;;;;;;;;5115367;28;20481;-64
2023/09/16 02:10:32;;;;;;;15.63;11.37;;;;;;;;;;5115725;28;20433;-64
2023/09/16 02:12:59;;;;;;;13.30;12.00;;;;;;;;;;5115436;28;20442;-65
2023/09/16 02:15:28;;;;;;;16.50;11.77;;;;;;;;;;5115754;28;20439;-64
2023/09/16 02:17:55;;;;;;;14.43;11.47;;;;;;;;;;5115662;28;20452;-64
2023/09/16 02:20:22;;;;;;;13.73;12.07;;;;;;;;;;5116248;28;20430;-64
2023/09/16 02:22:50;;;;;;;17.83;13.30;;;;;;;;;;5115962;28;20431;-64
2023/09/16 02:25:17;;;;;;;14.53;11.90;;;;;;;;;;5115276;28;20552;-64
2023/09/16 02:27:44;;;;;;;13.50;11.73;;;;;;;;;;5115792;28;20491;-64
2023/09/16 02:30:13;;;;;;;12.70;11.37;;;;;;;;;;5115343;28;20453;-64
2023/09/16 02:32:41;;;;;;;15.10;10.90;;;;;;;;;;5114900;28;20438;-64
2023/09/16 02:35:08;;;;;;;14.53;12.07;;;;;;;;;;5115327;28;20432;-64
2023/09/16 02:37:36;;;;;;;13.93;12.53;;;;;;;;;;5115247;28;20554;-64
2023/09/16 02:40:03;;;;;;;14.00;12.50;;;;;;;;;;5114844;28;20442;-64
2023/09/16 02:42:30;;;;;;;11.87;10.30;;;;;;;;;;5115158;28;20452;-64
2023/09/16 02:44:57;;;;;;;14.90;10.93;;;;;;;;;;5115138;28;20519;-65
2023/09/16 02:47:24;;;;;;;12.00;10.90;;;;;;;;;;5115077;28;20437;-64
2023/09/16 02:49:53;;;;;;;13.00;11.70;;;;;;;;;;5114650;28;20457;-64
2023/09/16 02:52:20;;;;;;;14.40;11.83;;;;;;;;;;5115051;28;20438;-64
2023/09/16 02:54:48;;;;;;;14.77;12.37;;;;;;;;;;5114955;28;20919;-64
2023/09/16 02:57:15;;;;;;;16.03;12.70;;;;;;;;;;5115424;28;20443;-64
2023/09/16 02:59:42;;;;;;;14.03;11.83;;;;;;;;;;5114752;28;20441;-64
2023/09/16 03:02:09;;;;;;;13.50;11.60;;;;;;;;;;5114920;28;20442;-64
2023/09/16 03:04:36;;;;;;;12.60;11.40;;;;;;;;;;5114418;28;20434;-64
2023/09/16 03:07:05;;;;;;;13.70;12.40;;;;;;;;;;5114466;28;20950;-64
2023/09/16 03:09:32;;;;;;;13.63;12.17;;;;;;;;;;5114782;28;20476;-64
2023/09/16 03:11:59;;;;;;;13.50;12.10;;;;;;;;;;5114253;28;20525;-65
2023/09/16 03:14:27;;;;;;;15.37;11.27;;;;;;;;;;5114620;28;20845;-64
2023/09/16 03:16:55;;;;;;;13.90;11.60;;;;;;;;;;5114638;28;20800;-64
2023/09/16 03:19:22;;;;;;;13.70;12.30;;;;;;;;;;5114692;28;20472;-64
2023/09/16 03:21:49;;;;;;;19.30;10.70;;;;;;;;;;5114725;28;20523;-65
2023/09/16 03:24:18;;;;;;;12.23;11.03;;;;;;;;;;5113632;28;20466;-64
2023/09/16 03:26:45;;;;;;;12.93;11.60;;;;;;;;;;5114423;28;20448;-64
2023/09/16 03:29:12;;;;;;;16.07;10.33;;;;;;;;;;5113858;28;20474;-64
2023/09/16 03:31:39;;;;;;;12.67;11.40;;;;;;;;;;5112485;28;20452;-64
2023/09/16 03:34:07;;;;;;;12.93;11.00;;;;;;;;;;5113570;28;20437;-64
2023/09/16 03:36:34;;;;;;;13.73;10.97;;;;;;;;;;5113609;28;20444;-64
2023/09/16 03:39:01;;;;;;;14.13;10.57;;;;;;;;;;5113634;28;20907;-64
2023/09/16 03:41:30;;;;;;;12.30;11.10;;;;;;;;;;5113575;28;20445;-64
2023/09/16 03:43:57;;;;;;;12.20;10.50;;;;;;;;;;5113738;28;20436;-64
2023/09/16 03:46:24;;;;;;;15.33;11.77;;;;;;;;;;5113564;28;20446;-64
2023/09/16 03:48:52;;;;;;;12.97;11.67;;;;;;;;;;5113685;28;20484;-64
2023/09/16 03:51:19;;;;;;;14.20;11.10;;;;;;;;;;5113475;28;20529;-64
2023/09/16 03:53:47;;;;;;;13.67;10.63;;;;;;;;;;5114160;28;20441;-64
2023/09/16 03:56:14;;;;;;;12.90;11.60;;;;;;;;;;5113751;28;20468;-64
2023/09/16 03:58:42;;;;;;;15.17;11.60;;;;;;;;;;5113334;28;20444;-64
2023/09/16 04:01:10;;;;;;;13.43;10.80;;;;;;;;;;5113511;28;20803;-64
2023/09/16 04:03:37;;;;;;;11.63;10.47;;;;;;;;;;5113996;28;20519;-64
2023/09/16 04:06:04;;;;;;;12.00;10.57;;;;;;;;;;5113655;28;20438;-64
2023/09/16 04:08:32;;;;;;;12.57;10.30;;;;;;;;;;5113213;28;20470;-64
2023/09/16 04:10:59;;;;;;;13.03;10.43;;;;;;;;;;5113202;28;20520;-64
2023/09/16 04:13:26;;;;;;;16.70;10.13;;;;;;;;;;5113290;28;20436;-64
2023/09/16 04:15:55;;;;;;;14.87;9.60;;;;;;;;;;5113588;28;20439;-64
2023/09/16 04:18:22;;;;;;;13.63;10.53;;;;;;;;;;5113180;28;20928;-64
2023/09/16 04:20:50;;;;;;;12.60;11.37;;;;;;;;;;5113553;28;20860;-64
2023/09/16 04:23:18;;;;;;;12.37;9.37;;;;;;;;;;5113314;28;20446;-64
2023/09/16 04:25:45;;;;;;;11.97;10.40;;;;;;;;;;5131534;28;20476;-64
2023/09/16 04:28:13;;;;;;;12.10;10.40;;;;;;;;;;5133690;28;20476;-64
2023/09/16 04:30:47;;;;;;;15.27;10.80;;;;;;;;;;5133716;28;20995;-64
2023/09/16 04:33:16;;;;;;;12.00;9.93;;;;;;;;;;5134484;28;20794;-64
2023/09/16 04:35:45;;;;;;;14.03;11.77;;;;;;;;;;5133865;27;20569;-64
2023/09/16 04:38:12;;;;;;;13.47;12.17;;;;;;;;;;5138041;27;20446;-64
2023/09/16 04:40:39;;;;;;;13.53;12.17;;;;;;;;;;5138114;27;20451;-64
2023/09/16 04:43:07;;;;;;;14.67;12.37;;;;;;;;;;5137710;27;20450;-64
2023/09/16 04:45:34;;;;;;;14.83;13.30;;;;;;;;;;5138055;27;20849;-64
2023/09/16 04:48:01;;;;;;;14.47;12.63;;;;;;;;;;5137640;27;20441;-64
2023/09/16 04:50:31;;;;;;;25.93;13.90;;;;;;;;;;5137844;27;20440;-64
2023/09/16 04:52:58;;;;;;;14.20;12.80;;;;;;;;;;5137757;27;20461;-63
2023/09/16 04:55:26;;;;;;;13.80;12.40;;;;;;;;;;5137923;27;20479;-64
2023/09/16 04:57:53;;;;;;;12.60;11.30;;;;;;;;;;5137697;27;20434;-64
2023/09/16 05:00:22;;;;;;;13.33;11.93;;;;;;;;;;5137336;27;20635;-64
2023/09/16 05:02:50;;;;;;;13.43;12.00;;;;;;;;;;5137409;27;20942;-64
2023/09/16 05:05:17;;;;;;;15.27;13.77;;;;;;;;;;5137300;27;20482;-64
2023/09/16 05:07:46;;;;;;;14.40;12.33;;;;;;;;;;5137942;27;20440;-64
2023/09/16 05:10:14;;;;;;;13.00;11.70;;;;;;;;;;5137206;27;20475;-63
2023/09/16 05:12:42;;;;;;;13.47;12.07;;;;;;;;;;5116565;27;20449;-63
2023/09/16 05:15:10;;;;;;;13.13;11.83;;;;;;;;;;5116813;28;20801;-63
2023/09/16 05:17:38;;;;;;;14.30;12.90;;;;;;;;;;5116627;28;20440;-63
2023/09/16 05:20:05;;;;;;;14.73;12.67;;;;;;;;;;5116822;28;20802;-63
2023/09/16 05:22:33;;;;;;;15.33;13.47;;;;;;;;;;5116540;28;20446;-63
2023/09/16 05:25:01;;;;;;;15.20;12.80;;;;;;;;;;5116369;28;20506;-63
2023/09/16 05:27:28;;;;;;;14.10;12.73;;;;;;;;;;5116132;28;20518;-64
2023/09/16 05:29:56;;;;;;;13.20;11.70;;;;;;;;;;5116062;28;20569;-63
2023/09/16 05:32:24;;;;;;;14.83;13.23;;;;;;;;;;5116335;28;20514;-64
2023/09/16 05:34:51;;;;;;;13.93;12.40;;;;;;;;;;5116385;28;20444;-63
2023/09/16 05:37:18;;;;;;;12.70;11.50;;;;;;;;;;5116293;28;20438;-63
2023/09/16 05:39:45;;;;;;;14.07;12.70;;;;;;;;;;5116307;28;20446;-64
2023/09/16 05:42:14;;;;;;;15.07;12.80;;;;;;;;;;5116188;28;20446;-63
2023/09/16 05:44:41;;;;;;;18.73;12.70;;;;;;;;;;5115824;28;20447;-63
2023/09/16 05:47:08;;;;;;;14.73;11.90;;;;;;;;;;5115242;28;20522;-63
2023/09/16 05:49:35;;;;;;;15.23;12.80;;;;;;;;;;5115795;28;20565;-63
2023/09/16 05:52:02;;;;;;;15.50;11.33;;;;;;;;;;5115621;28;20926;-64
2023/09/16 05:54:29;;;;;;;13.40;12.00;;;;;;;;;;5116354;28;20440;-63
2023/09/16 05:56:57;;;;;;;14.07;10.93;;;;;;;;;;5115490;28;20433;-64
2023/09/16 05:59:25;;;;;;;15.40;12.33;;;;;;;;;;5115593;28;20484;-64
2023/09/16 06:01:52;;;;;;;13.93;12.63;;;;;;;;;;5115831;28;20441;-64
2023/09/16 06:04:20;;;;;;;13.30;10.90;;;;;;;;;;5115678;28;20439;-64
2023/09/16 06:06:49;;;;;;;12.53;10.90;;;;;;;;;;5115738;28;20798;-64
2023/09/16 06:09:16;;;;;;;12.67;11.37;;;;;;;;;;5115903;28;20494;-64
2023/09/16 06:11:43;;;;;;;14.77;12.17;;;;;;;;;;5114983;28;20442;-64
2023/09/16 06:14:10;;;;;;;12.80;11.50;;;;;;;;;;5115633;28;21002;-64
2023/09/16 06:16:39;;;;;;;12.80;11.30;;;;;;;;;;5115507;28;20798;-64
2023/09/16 06:19:06;;;;;;;12.27;10.97;;;;;;;;;;5116198;28;20449;-64
2023/09/16 06:21:33;;;;;;;12.03;10.90;;;;;;;;;;5115484;28;20543;-64
2023/09/16 06:24:01;;;;;;;15.90;11.37;;;;;;;;;;5115035;28;20473;-64
2023/09/16 06:26:28;;;;;;;12.80;11.60;;;;;;;;;;5114968;28;20935;-64
2023/09/16 06:28:56;;;;;;;11.67;10.53;;;;;;;;;;5115401;28;20485;-64
2023/09/16 06:31:23;;;;;;;11.90;10.70;;;;;;;;;;5115119;28;20441;-64
2023/09/16 06:33:52;;;;;;;11.13;9.63;;;;;;;;;;5115017;28;20436;-64
2023/09/16 06:36:19;;;;;;;15.63;10.63;;;;;;;;;;5114882;28;20438;-64
2023/09/16 06:38:46;;;;;;;11.37;10.27;;;;;;;;;;5114987;28;20739;-64
2023/09/16 06:41:13;;;;;;;11.73;10.27;;;;;;;;;;5114964;28;20477;-64
2023/09/16 06:43:41;;;;;;;11.10;10.00;;;;;;;;;;5115011;28;20434;-64
2023/09/16 06:46:08;;;;;;;10.73;9.57;;;;;;;;;;5115068;28;20439;-64
2023/09/16 06:48:35;;;;;;;11.67;10.50;;;;;;;;;;5114440;28;20521;-64
2023/09/16 06:51:03;;;;;;;11.73;9.33;;;;;;;;;;5114544;28;20926;-65
2023/09/16 06:53:31;;;;;;;10.70;9.60;;;;;;;;;;5114897;28;20529;-73
2023/09/16 06:55:58;;;;;;;9.80;8.80;;;;;;;;;;5114570;28;20453;-65
2023/09/16 06:58:26;;;;;;;11.27;10.20;;;;;;;;;;5114113;28;20937;-65
2023/09/16 07:00:53;;;;;;;9.90;8.90;;;;;;;;;;5114423;28;20446;-65
2023/09/16 07:03:20;;;;;;;10.50;9.30;;;;;;;;;;5114724;28;20442;-65
2023/09/16 07:05:47;;;;;;;10.53;9.43;;;;;;;;;;5114445;28;20949;-66
2023/09/16 07:08:19;;;;;;;10.30;9.20;;;;;;;;;;5114680;28;20430;-65
2023/09/16 07:10:47;;;;;;;10.30;8.67;;;;;;;;;;5114697;28;20465;-65
2023/09/16 07:13:14;;;;;;;9.53;8.57;;;;;;;;;;5113982;28;20987;-67
2023/09/16 07:15:41;;;;;;;11.10;9.63;;;;;;;;;;5114572;28;20525;-63
2023/09/16 07:18:08;;;;;;;11.83;8.30;;;;;;;;;;5114518;28;20468;-63
2023/09/16 07:20:35;;;;;;;10.73;9.40;;;;;;;;;;5114316;28;20473;-63
2023/09/16 07:23:03;;;;;;;12.30;10.77;;;;;;;;;;5114283;28;20438;-64
2023/09/16 07:25:31;;;;;;;19.10;16.47;;;;;;;;;;5114399;28;21001;-63
2023/09/16 07:27:58;;;;;;;15.13;11.50;;;;;;;;;;5114200;28;20450;-63
2023/09/16 07:30:25;;;;;;;10.60;8.40;;;;;;;;;;5113800;28;20568;-63
2023/09/16 07:32:53;;;;;;;11.83;8.53;;;;;;;;;;5113775;28;20938;-63
2023/09/16 07:35:20;;;;;;;9.27;8.47;;;;;;;;;;5114620;28;20463;-63
2023/09/16 07:37:47;;;;;;;9.13;8.33;;;;;;;;;;5114062;28;20438;-64
2023/09/16 07:40:14;;;;;;;9.50;8.60;;;;;;;;;;5113715;28;20529;-63
2023/09/16 07:42:43;;;;;;;8.27;7.60;;;;;;;;;;5114021;28;20448;-63
2023/09/16 07:45:10;;;;;;;8.57;7.77;;;;;;;;;;5113948;28;20433;-63
2023/09/16 07:47:38;;;;;;;8.73;8.00;;;;;;;;;;5113359;28;20441;-63
2023/09/16 07:50:05;;;;;;;9.17;8.30;;;;;;;;;;5113824;28;20483;-63
2023/09/16 07:52:32;;;;;;;9.37;8.43;;;;;;;;;;5113587;28;20529;-64
2023/09/16 07:55:01;;;;;;;9.70;8.70;;;;;;;;;;5114475;28;20437;-63
2023/09/16 07:57:29;;;;;;;8.47;7.53;;;;;;;;;;5113484;28;20489;-63
2023/09/16 07:59:57;;;;;;;11.60;10.03;;;;;;;;;;5113331;28;20441;-63
2023/09/16 08:02:24;;;;;;;9.47;8.57;;;;;;;;;;5113646;28;20525;-64
2023/09/16 08:04:51;;;;;;;10.20;8.40;;;;;;;;;;5113330;28;20529;-63
2023/09/16 08:07:19;;;;;;;8.70;7.87;;;;;;;;;;5113420;28;20530;-64
2023/09/16 08:09:46;;;;;;;9.27;7.03;;;;;;;;;;5113447;28;20789;-63
2023/09/16 08:12:13;;;;;;;8.33;7.63;;;;;;;;;;5113483;28;20443;-63
2023/09/16 08:14:40;;;;;;;11.63;7.30;;;;;;;;;;5113313;28;20440;-64
2023/09/16 08:17:09;;;;;;;6.90;6.30;;;;;;;;;;5113151;28;20538;-64
2023/09/16 08:19:36;;;;;;;7.07;6.47;;;;;;;;;;5130459;27;20433;-64
2023/09/16 08:22:03;;;;;;;7.23;6.60;;;;;;;;;;5133998;27;20442;-64
2023/09/16 08:24:31;;;;;;;8.87;7.27;;;;;;;;;;5133810;27;20567;-64
2023/09/16 08:26:58;;;;;;;7.60;6.50;;;;;;;;;;5134151;28;20440;-64
2023/09/16 08:29:25;;;;;;;7.83;7.10;;;;;;;;;;5133819;28;20822;-64
2023/09/16 08:31:52;;;;;;;8.77;7.03;;;;;;;;;;5134198;28;20440;-64
2023/09/16 08:34:21;;;;;;;8.00;6.13;;;;;;;;;;5133515;28;20434;-64
2023/09/16 08:36:48;;;;;;;7.53;6.73;;;;;;;;;;5133021;28;20548;-64
2023/09/16 08:39:15;;;;;;;8.17;7.37;;;;;;;;;;5133696;28;20441;-63
2023/09/16 08:41:44;;;;;;;6.70;5.90;;;;;;;;;;5133976;28;20447;-64
2023/09/16 08:44:14;;;;;;;8.10;7.00;;;;;;;;;;5133675;28;20511;-63
2023/09/16 08:46:42;;;;;;;6.57;5.97;;;;;;;;;;5133257;28;21008;-63
2023/09/16 08:49:12;;;;;;;6.30;5.80;;;;;;;;;;5133196;28;20527;-64
2023/09/16 08:51:43;;;;;;;6.07;5.57;;;;;;;;;;5133523;28;20861;-63
2023/09/16 08:54:11;;;;;;;9.77;5.43;;;;;;;;;;5133408;28;20446;-63
2023/09/16 08:56:38;;;;;;;6.10;5.50;;;;;;;;;;5133404;28;20502;-63
2023/09/16 08:59:05;;;;;;;9.23;6.17;;;;;;;;;;5133804;28;20434;-63
2023/09/16 09:01:34;;;;;;;9.37;5.53;;;;;;;;;;5133555;28;20438;-63
2023/09/16 09:04:02;;;;;;;7.00;5.90;;;;;;;;;;5133609;28;20473;-63
2023/09/16 09:06:30;;;;;;;5.13;4.53;;;;;;;;;;5132931;28;20446;-64
2023/09/16 09:08:58;;;;;;;5.87;5.17;;;;;;;;;;5133120;28;20954;-64
2023/09/16 09:11:26;;;;;;;6.33;5.20;;;;;;;;;;5133494;28;20472;-63
2023/09/16 09:13:54;;;;;;;5.53;4.77;;;;;;;;;;5133079;28;20441;-64
2023/09/16 09:16:22;;;;;;;5.67;5.17;;;;;;;;;;5133423;28;20801;-64
2023/09/16 09:18:50;;;;;;;5.30;4.80;;;;;;;;;;5133391;28;20867;-64
2023/09/16 09:21:18;;;;;;;5.37;4.90;;;;;;;;;;5133080;27;20437;-64
2023/09/16 09:23:45;;;;;;;9.30;5.83;;;;;;;;;;5135980;27;20437;-64
2023/09/16 09:26:14;;;;;;;6.67;6.17;;;;;;;;;;5137063;27;20447;-65
2023/09/16 09:28:41;;;;;;;5.10;4.70;;;;;;;;;;5136728;27;20442;-64
2023/09/16 09:31:08;;;;;;;5.70;5.20;;;;;;;;;;5136699;27;20474;-64
2023/09/16 09:33:40;;;;;;;4.73;4.40;;;;;;;;;;5137083;27;20465;-62
2023/09/16 09:36:11;;;;;;;5.23;4.33;;;;;;;;;;5137070;27;20433;-62
2023/09/16 09:38:39;;;;;;;6.97;5.13;;;;;;;;;;5136378;27;20450;-62
2023/09/16 09:41:07;;;;;;;7.77;6.70;;;;;;;;;;5136744;27;20855;-62
2023/09/16 09:43:35;;;;;;;5.77;5.17;;;;;;;;;;5136498;27;20447;-62
2023/09/16 09:46:03;;;;;;;6.03;5.53;;;;;;;;;;5136829;27;20430;-62
2023/09/16 09:48:30;;;;;;;8.20;5.47;;;;;;;;;;5136635;27;20442;-62
2023/09/16 09:50:58;;;;;;;5.50;5.00;;;;;;;;;;5136096;27;20466;-63
2023/09/16 09:53:26;;;;;;;5.13;4.73;;;;;;;;;;5136885;27;20525;-64
2023/09/16 09:55:53;;;;;;;5.60;5.10;;;;;;;;;;5136469;27;20438;-63
2023/09/16 09:58:21;;;;;;;6.30;5.00;;;;;;;;;;5136558;27;20911;-62
2023/09/16 10:00:50;;;;;;;5.57;5.07;;;;;;;;;;5136260;27;20491;-63
2023/09/16 10:03:18;;;;;;;5.37;4.97;;;;;;;;;;5136720;27;20537;-63
2023/09/16 10:05:46;;;;;;;5.70;4.97;;;;;;;;;;5135855;27;20460;-63
2023/09/16 10:08:13;;;;;;;5.80;5.30;;;;;;;;;;5135892;27;20441;-63
2023/09/16 10:10:41;;;;;;;5.50;5.00;;;;;;;;;;5136009;27;20811;-63
2023/09/16 10:13:09;;;;;;;5.37;4.87;;;;;;;;;;5136347;27;20520;-63
2023/09/16 10:15:37;;;;;;;5.40;4.90;;;;;;;;;;5135781;27;20448;-63
2023/09/16 10:18:07;;;;;;;6.03;5.40;;;;;;;;;;5135744;27;20527;-63
2023/09/16 10:20:36;;;;;;;6.07;5.47;;;;;;;;;;5135616;27;20936;-63
2023/09/16 10:23:03;;;;;;;9.03;5.23;;;;;;;;;;5135896;27;20466;-63
2023/09/16 10:25:31;;;;;;;5.17;4.67;;;;;;;;;;5135721;27;20549;-62
2023/09/16 10:27:58;;;;;;;5.90;5.40;;;;;;;;;;5136125;27;20441;-62
2023/09/16 10:30:26;;;;;;;6.37;5.33;;;;;;;;;;5135829;27;20566;-64
2023/09/16 10:32:54;;;;;;;7.20;5.73;;;;;;;;;;5135503;27;21004;-63
2023/09/16 10:35:22;;;;;;;5.93;4.93;;;;;;;;;;5135478;27;20443;-63
2023/09/16 10:37:52;;;;;;;5.33;4.90;;;;;;;;;;5136090;27;20446;-63
2023/09/16 10:40:20;;;;;;;5.63;5.10;;;;;;;;;;5135717;27;20462;-63
2023/09/16 10:42:48;;;;;;;9.63;4.90;;;;;;;;;;5135324;27;20449;-64
2023/09/16 10:45:17;;;;;;;5.10;4.30;;;;;;;;;;5135305;27;20436;-64
2023/09/16 10:47:46;;;;;;;5.13;4.63;;;;;;;;;;5135314;27;20436;-63
2023/09/16 10:50:13;;;;;;;5.00;4.60;;;;;;;;;;5135121;27;20469;-63
2023/09/16 10:52:43;;;;;;;5.33;4.63;;;;;;;;;;5135582;27;20467;-63
2023/09/16 10:55:14;;;;;;;6.10;5.70;;;;;;;;;;5134925;27;20842;-63
2023/09/16 10:57:46;;;;;;;5.30;4.80;;;;;;;;;;5135480;27;20421;-63
2023/09/16 11:00:14;;;;;;;7.03;6.30;;;;;;;;;;5134930;27;20445;-64
2023/09/16 11:02:43;;;;;;;6.73;5.57;;;;;;;;;;5135128;27;20429;-63
2023/09/16 11:05:10;;;;;;;5.70;4.20;;;;;;;;;;5135065;27;20787;-64
2023/09/16 11:07:38;;;;;;;5.27;4.77;;;;;;;;;;5135039;27;20535;-64
2023/09/16 11:10:07;;;;;;;5.37;4.87;;;;;;;;;;5134644;27;20438;-64
2023/09/16 11:12:35;;;;;;;5.57;5.07;;;;;;;;;;5134929;27;20448;-63
2023/09/16 11:15:06;;;;;;;5.60;5.10;;;;;;;;;;5134611;27;20524;-64
2023/09/16 11:17:34;;;;;;;5.80;5.30;;;;;;;;;;5135317;27;20504;-63
2023/09/16 11:20:11;;;;;;;5.17;4.67;;;;;;;;;;5135001;27;20447;-63
2023/09/16 11:22:39;;;;;;;5.60;5.10;;;;;;;;;;5134755;27;20433;-63
2023/09/16 11:25:12;;;;;;;7.17;5.40;;;;;;;;;;5134573;27;20476;-64
2023/09/16 11:27:39;;;;;;;5.07;4.67;;;;;;;;;;5134560;27;20511;-64
2023/09/16 11:30:14;;;;;;;5.10;4.60;;;;;;;;;;5134707;27;20448;-64
2023/09/16 11:32:41;;;;;;;5.90;5.33;;;;;;;;;;5134761;27;20521;-64
2023/09/16 11:35:10;;;;;;;6.57;5.87;;;;;;;;;;5134419;27;20472;-64
2023/09/16 11:37:37;;;;;;;5.43;5.03;;;;;;;;;;5134658;27;20448;-63
2023/09/16 11:40:13;;;;;;;5.80;5.30;;;;;;;;;;5134425;27;20439;-63
2023/09/16 11:42:40;;;;;;;6.73;6.10;;;;;;;;;;5134263;27;20421;-64
2023/09/16 11:45:08;;;;;;;6.60;5.87;;;;;;;;;;5134792;27;20541;-64
2023/09/16 11:47:35;;;;;;;5.57;5.07;;;;;;;;;;5134434;27;20428;-64
2023/09/16 11:50:02;;;;;;;10.10;6.70;;;;;;;;;;5134414;27;20589;-63
2023/09/16 11:52:30;;;;;;;12.53;8.60;;;;;;;;;;5134245;27;20534;-63
2023/09/16 11:54:58;;;;;;;6.13;5.60;;;;;;;;;;5134106;27;20491;-63
2023/09/16 11:57:27;;;;;;;6.67;5.97;;;;;;;;;;5134503;27;20768;-64
2023/09/16 11:59:55;;;;;;;6.47;5.87;;;;;;;;;;5134002;27;20471;-64
2023/09/16 12:02:22;;;;;;;7.33;6.13;;;;;;;;;;5134319;27;20446;-64
2023/09/16 12:04:49;;;;;;;6.23;5.63;;;;;;;;;;5133905;27;20482;-64
2023/09/16 12:07:16;;;;;;;6.23;5.73;;;;;;;;;;5134094;27;20440;-64
2023/09/16 12:09:43;;;;;;;6.03;5.43;;;;;;;;;;5133885;27;20448;-63
2023/09/16 12:12:11;;;;;;;5.93;5.40;;;;;;;;;;5134003;27;20548;-64
2023/09/16 12:14:41;;;;;;;6.60;6.10;;;;;;;;;;5133986;27;20480;-63
2023/09/16 12:17:08;;;;;;;6.20;5.60;;;;;;;;;;5133689;27;20436;-64
2023/09/16 12:19:36;;;;;;;7.70;5.70;;;;;;;;;;5134008;27;20876;-64
2023/09/16 12:22:03;;;;;;;6.80;6.10;;;;;;;;;;5133906;27;20444;-63
2023/09/16 12:24:30;;;;;;;9.67;6.17;;;;;;;;;;5126399;27;20811;-63
2023/09/16 12:26:57;;;;;;;5.67;5.17;;;;;;;;;;5098917;28;20449;-63
2023/09/16 12:29:25;;;;;;;5.73;5.10;;;;;;;;;;5092986;28;20436;-63
2023/09/16 12:31:53;;;;;;;6.20;5.50;;;;;;;;;;5092395;28;20522;-63
2023/09/16 12:34:21;;;;;;;5.83;5.33;;;;;;;;;;5093542;28;20473;-64
2023/09/16 12:36:50;;;;;;;6.63;5.80;;;;;;;;;;5092861;28;20796;-64
2023/09/16 12:39:17;;;;;;;6.40;5.80;;;;;;;;;;5092984;28;20905;-63
2023/09/16 12:41:46;;;;;;;5.63;5.13;;;;;;;;;;5092726;28;20794;-63
2023/09/16 12:44:14;;;;;;;5.90;5.30;;;;;;;;;;5092964;28;20435;-63
2023/09/16 12:46:42;;;;;;;6.87;5.27;;;;;;;;;;5092705;28;20447;-64
2023/09/16 12:49:10;;;;;;;5.60;5.10;;;;;;;;;;5092918;28;20433;-63
2023/09/16 12:51:38;;;;;;;7.57;5.87;;;;;;;;;;5092444;28;20839;-64
2023/09/16 12:54:07;;;;;;;6.07;5.23;;;;;;;;;;5092723;28;20537;-63
2023/09/16 12:56:36;;;;;;;6.80;6.10;;;;;;;;;;5092200;28;20932;-63
2023/09/16 12:59:03;;;;;;;6.37;5.30;;;;;;;;;;5096237;28;20434;-63
2023/09/16 13:01:31;;;;;;;5.70;5.20;;;;;;;;;;5096332;28;20448;-63
2023/09/16 13:04:02;;;;;;;5.80;5.40;;;;;;;;;;5096348;28;20785;-63
2023/09/16 13:06:31;;;;;;;6.00;5.60;;;;;;;;;;5097002;28;20433;-63
2023/09/16 13:08:59;;;;;;;6.73;6.13;;;;;;;;;;5096165;28;20855;-63
2023/09/16 13:11:26;;;;;;;6.53;5.67;;;;;;;;;;5096451;28;20475;-63
2023/09/16 13:13:55;;;;;;;5.67;5.20;;;;;;;;;;5096230;28;20534;-63
2023/09/16 13:16:25;;;;;;;6.90;6.40;;;;;;;;;;5095993;28;20487;-63
2023/09/16 13:18:53;;;;;;;10.03;6.10;;;;;;;;;;5095973;28;20421;-63
2023/09/16 13:21:20;;;;;;;6.57;6.07;;;;;;;;;;5096325;28;20802;-63
2023/09/16 13:23:52;;;;;;;8.57;6.10;;;;;;;;;;5097107;28;20442;-63
2023/09/16 13:26:21;;;;;;;6.10;5.60;;;;;;;;;;5116774;28;20812;-64
2023/09/16 13:28:55;;;;;;;7.40;6.70;;;;;;;;;;5116277;28;20444;-63
2023/09/16 13:31:22;;;;;;;6.50;6.00;;;;;;;;;;5116391;28;20468;-63
2023/09/16 13:33:53;;;;;;;6.40;5.83;;;;;;;;;;5115895;28;20430;-63
2023/09/16 13:36:22;;;;;;;10.90;9.63;;;;;;;;;;5116720;28;20496;-63
2023/09/16 13:38:49;;;;;;;9.93;8.97;;;;;;;;;;5116119;28;20880;-63
2023/09/16 13:41:17;;;;;;;7.27;6.53;;;;;;;;;;5116238;28;20447;-63
2023/09/16 13:43:45;;;;;;;7.37;6.10;;;;;;;;;;5116018;28;20453;-63
2023/09/16 13:46:12;;;;;;;7.97;5.93;;;;;;;;;;5116186;28;20449;-63
2023/09/16 13:48:40;;;;;;;6.80;6.20;;;;;;;;;;5115672;28;20927;-63
2023/09/16 13:51:08;;;;;;;7.23;6.40;;;;;;;;;;5116280;28;20443;-63
2023/09/16 13:53:36;;;;;;;6.73;6.10;;;;;;;;;;5116035;28;20450;-63
2023/09/16 13:56:05;;;;;;;6.10;5.50;;;;;;;;;;5115561;28;20448;-64
2023/09/16 13:58:34;;;;;;;6.80;6.20;;;;;;;;;;5116049;28;20522;-63
2023/09/16 14:01:01;;;;;;;6.53;6.03;;;;;;;;;;5120775;27;20793;-63
2023/09/16 14:03:28;;;;;;;6.80;5.80;;;;;;;;;;5136419;27;20430;-63
2023/09/16 14:05:56;;;;;;;6.87;6.10;;;;;;;;;;5136300;27;20802;-64
2023/09/16 14:08:23;;;;;;;7.43;6.83;;;;;;;;;;5136246;27;20510;-64
2023/09/16 14:10:50;;;;;;;6.70;6.10;;;;;;;;;;5136645;27;20436;-65
2023/09/16 14:13:18;;;;;;;6.67;6.10;;;;;;;;;;5135928;27;20483;-64
2023/09/16 14:15:46;;;;;;;7.50;6.90;;;;;;;;;;5136127;27;20798;-64
2023/09/16 14:18:14;;;;;;;6.97;5.60;;;;;;;;;;5135609;27;20477;-64
2023/09/16 14:20:41;;;;;;;9.70;6.50;;;;;;;;;;5136147;27;20450;-64
2023/09/16 14:23:08;;;;;;;7.53;6.80;;;;;;;;;;5135432;27;20433;-65
2023/09/16 14:25:36;;;;;;;6.83;6.33;;;;;;;;;;5135927;27;20469;-64
2023/09/16 14:28:03;;;;;;;8.83;6.37;;;;;;;;;;5135778;27;20474;-64
2023/09/16 14:30:31;;;;;;;7.30;6.60;;;;;;;;;;5135413;27;20448;-64
2023/09/16 14:33:00;;;;;;;6.80;6.30;;;;;;;;;;5135853;27;20477;-64
2023/09/16 14:35:27;;;;;;;6.63;6.03;;;;;;;;;;5135366;27;20525;-64